createdAt,value
2022-08-28T00:02:07.491Z,6.05
2022-08-28T00:04:35.087Z,4.63
2022-08-28T00:07:01.731Z,6.80
2022-08-28T00:09:27.605Z,4.88
2022-08-28T00:11:53.832Z,5.97
2022-08-28T00:14:21.203Z,11.00
2022-08-28T00:16:48.297Z,3.65
2022-08-28T00:19:15.894Z,6.63
2022-08-28T00:21:41.877Z,7.47
2022-08-28T00:24:08.293Z,5.50
2022-08-28T00:26:52.931Z,6.68
2022-08-28T00:29:18.743Z,6.00
2022-08-28T00:31:44.730Z,6.18
2022-08-28T00:34:10.695Z,5.03
2022-08-28T00:36:37.989Z,6.13
2022-08-28T00:39:05.263Z,5.07
2022-08-28T00:41:34.502Z,6.20
2022-08-28T00:44:28.663Z,6.07
2022-08-28T00:46:57.246Z,11.02
2022-08-28T00:49:27.705Z,7.53
2022-08-28T00:52:08.228Z,8.20
2022-08-28T00:54:41.706Z,5.20
2022-08-28T00:57:33.649Z,8.88
2022-08-28T00:59:59.722Z,5.78
2022-08-28T01:02:26.702Z,6.70
2022-08-28T01:04:53.988Z,6.43
2022-08-28T01:07:22.412Z,9.20
2022-08-28T01:09:52.767Z,8.35
2022-08-28T01:12:25.693Z,10.18
2022-08-28T01:14:57.760Z,6.35
2022-08-28T01:17:27.755Z,5.82
2022-08-28T01:20:00.191Z,8.80
2022-08-28T01:22:48.384Z,6.45
2022-08-28T01:25:18.455Z,6.15
2022-08-28T01:27:44.594Z,4.95
2022-08-28T01:30:14.144Z,10.02
2022-08-28T01:32:50.949Z,9.20
2022-08-28T01:35:22.057Z,11.85
2022-08-28T01:37:48.123Z,6.60
2022-08-28T01:40:19.539Z,7.78
2022-08-28T01:42:45.635Z,11.18
2022-08-28T01:45:17.693Z,5.03
2022-08-28T01:47:44.763Z,8.77
2022-08-28T01:50:14.165Z,6.28
2022-08-28T01:52:40.955Z,6.20
2022-08-28T01:55:08.010Z,10.00
2022-08-28T01:57:34.628Z,5.00
2022-08-28T02:00:00.861Z,7.03
2022-08-28T02:02:28.517Z,7.25
2022-08-28T02:04:54.309Z,6.60
2022-08-28T02:07:20.149Z,6.50
2022-08-28T02:09:46.253Z,9.55
2022-08-28T02:12:12.041Z,10.73
2022-08-28T02:14:38.126Z,9.70
2022-08-28T02:17:04.067Z,8.52
2022-08-28T02:19:31.257Z,9.45
2022-08-28T02:21:57.087Z,8.32
2022-08-28T02:24:23.031Z,7.80
2022-08-28T02:26:48.873Z,13.02
2022-08-28T02:29:14.709Z,12.45
2022-08-28T02:31:40.501Z,10.00
2022-08-28T02:34:06.405Z,8.30
2022-08-28T02:36:33.052Z,15.45
2022-08-28T02:38:58.977Z,12.30
2022-08-28T02:41:25.523Z,10.95
2022-08-28T02:43:51.599Z,7.68
2022-08-28T02:46:17.527Z,11.43
2022-08-28T02:48:44.021Z,7.20
2022-08-28T02:51:12.568Z,9.80
2022-08-28T02:53:39.938Z,10.25
2022-08-28T02:56:06.886Z,8.95
2022-08-28T02:58:33.866Z,8.35
2022-08-28T03:01:01.172Z,12.65
2022-08-28T03:03:30.393Z,9.55
2022-08-28T03:05:57.788Z,10.70
2022-08-28T03:08:27.292Z,7.53
2022-08-28T03:10:53.450Z,11.15
2022-08-28T03:13:23.123Z,9.23
2022-08-28T03:15:55.947Z,12.27
2022-08-28T03:18:23.687Z,12.80
2022-08-28T03:20:49.524Z,8.60
2022-08-28T03:23:27.533Z,9.35
2022-08-28T03:26:00.140Z,11.27
2022-08-28T03:28:29.983Z,11.20
2022-08-28T03:30:57.012Z,9.68
2022-08-28T03:33:25.537Z,13.73
2022-08-28T03:35:52.075Z,14.02
2022-08-28T03:38:18.927Z,13.02
2022-08-28T03:40:46.476Z,8.25
2022-08-28T03:43:15.012Z,16.98
2022-08-28T03:45:41.580Z,10.73
2022-08-28T03:48:07.861Z,10.63
2022-08-28T03:50:34.364Z,9.13
2022-08-28T03:53:00.189Z,11.20
2022-08-28T03:55:26.164Z,7.90
2022-08-28T03:57:52.164Z,13.13
2022-08-28T04:00:19.648Z,10.90
2022-08-28T04:02:45.598Z,11.35
2022-08-28T04:05:12.212Z,7.35
2022-08-28T04:07:38.784Z,7.20
2022-08-28T04:10:05.228Z,9.23
2022-08-28T04:12:32.847Z,10.32
2022-08-28T04:15:01.385Z,17.45
2022-08-28T04:17:27.272Z,14.10
2022-08-28T04:19:53.542Z,10.15
2022-08-28T04:22:20.233Z,12.63
2022-08-28T04:24:49.700Z,13.98
2022-08-28T04:27:15.468Z,10.32
2022-08-28T04:29:41.311Z,13.98
2022-08-28T04:32:07.248Z,11.98
2022-08-28T04:34:33.085Z,11.88
2022-08-28T04:36:58.922Z,13.07
2022-08-28T04:39:24.697Z,12.73
2022-08-28T04:41:50.544Z,13.43
2022-08-28T04:44:16.478Z,11.15
2022-08-28T04:46:42.704Z,10.82
2022-08-28T04:49:08.574Z,15.02
2022-08-28T04:51:36.840Z,11.68
2022-08-28T04:54:04.835Z,12.68
2022-08-28T04:56:30.909Z,13.50
2022-08-28T04:58:56.835Z,15.02
2022-08-28T05:01:24.401Z,15.45
2022-08-28T05:03:56.743Z,9.27
2022-08-28T05:06:26.061Z,10.70
2022-08-28T05:08:53.293Z,12.18
2022-08-28T05:11:33.417Z,11.35
2022-08-28T05:14:05.014Z,13.77
2022-08-28T05:16:32.138Z,12.50
2022-08-28T05:19:02.568Z,14.57
2022-08-28T05:21:28.397Z,8.45
2022-08-28T05:23:56.648Z,12.40
2022-08-28T05:26:22.849Z,12.02
2022-08-28T05:28:54.369Z,10.02
2022-08-28T05:31:21.863Z,13.82
2022-08-28T05:33:49.127Z,12.82
2022-08-28T05:36:16.921Z,13.52
2022-08-28T05:38:43.608Z,12.70
2022-08-28T05:41:09.409Z,13.88
2022-08-28T05:43:35.987Z,11.70
2022-08-28T05:46:06.797Z,11.23
2022-08-28T05:48:37.099Z,10.75
2022-08-28T05:51:07.756Z,10.20
2022-08-28T05:53:36.827Z,13.95
2022-08-28T05:56:04.389Z,13.18
2022-08-28T05:58:31.208Z,14.38
2022-08-28T06:01:08.998Z,12.55
2022-08-28T06:03:36.873Z,10.23
2022-08-28T06:06:03.596Z,13.70
2022-08-28T06:08:30.948Z,9.32
2022-08-28T06:10:57.757Z,14.48
2022-08-28T06:13:24.676Z,10.50
2022-08-28T06:15:50.662Z,12.05
2022-08-28T06:18:16.945Z,11.45
2022-08-28T06:20:44.932Z,13.85
2022-08-28T06:23:14.637Z,17.40
2022-08-28T06:25:48.387Z,11.10
2022-08-28T06:28:18.191Z,19.63
2022-08-28T06:31:08.946Z,14.02
2022-08-28T06:33:30.969Z,13.40
2022-08-28T06:35:56.852Z,13.48
2022-08-28T06:38:24.994Z,10.23
2022-08-28T06:40:53.353Z,12.70
2022-08-28T06:43:22.417Z,10.25
2022-08-28T06:45:51.180Z,10.30
2022-08-28T06:48:18.957Z,10.80
2022-08-28T06:50:48.893Z,9.20
2022-08-28T06:53:17.918Z,9.80
2022-08-28T06:55:43.965Z,8.15
2022-08-28T06:58:11.958Z,9.20
2022-08-28T07:00:39.648Z,11.15
2022-08-28T07:03:05.717Z,9.13
2022-08-28T07:05:33.286Z,11.57
2022-08-28T07:07:59.393Z,12.23
2022-08-28T07:10:28.678Z,11.35
2022-08-28T07:12:54.632Z,14.23
2022-08-28T07:15:20.773Z,12.65
2022-08-28T07:17:46.707Z,8.32
2022-08-28T07:20:12.842Z,8.27
2022-08-28T07:22:40.276Z,11.00
2022-08-28T07:25:08.397Z,7.65
2022-08-28T07:27:34.260Z,13.65
2022-08-28T07:30:01.289Z,12.10
2022-08-28T07:32:28.201Z,11.88
2022-08-28T07:34:56.372Z,10.90
2022-08-28T07:37:22.173Z,13.00
2022-08-28T07:39:48.906Z,13.82
2022-08-28T07:42:35.778Z,11.68
2022-08-28T07:45:02.128Z,9.50
2022-08-28T07:47:31.261Z,13.70
2022-08-28T07:49:59.935Z,11.93
2022-08-28T07:52:27.260Z,9.90
2022-08-28T07:54:54.132Z,13.90
2022-08-28T07:57:20.560Z,11.73
2022-08-28T07:59:48.851Z,12.60
2022-08-28T08:02:15.714Z,11.30
2022-08-28T08:04:42.238Z,8.88
2022-08-28T08:07:08.966Z,13.95
2022-08-28T08:09:42.975Z,12.88
2022-08-28T08:12:11.490Z,13.57
2022-08-28T08:14:38.713Z,10.55
2022-08-28T08:17:05.215Z,15.02
2022-08-28T08:19:33.909Z,10.95
2022-08-28T08:22:00.528Z,14.75
2022-08-28T08:24:27.766Z,11.00
2022-08-28T08:26:59.927Z,8.25
2022-08-28T08:29:32.462Z,10.07
2022-08-28T08:32:04.578Z,11.20
2022-08-28T08:34:32.295Z,8.90
2022-08-28T08:36:58.140Z,12.23
2022-08-28T08:39:24.045Z,9.50
2022-08-28T08:41:54.744Z,11.23
2022-08-28T08:44:35.966Z,7.88
2022-08-28T08:47:14.545Z,9.15
2022-08-28T08:49:55.087Z,10.38
2022-08-28T08:52:44.194Z,11.85
2022-08-28T08:55:22.603Z,8.02
2022-08-28T08:58:13.221Z,8.02
2022-08-28T09:00:51.540Z,7.65
2022-08-28T09:03:25.581Z,8.23
2022-08-28T09:05:57.441Z,11.43
2022-08-28T09:08:34.408Z,7.18
2022-08-28T09:11:06.328Z,8.38
2022-08-28T09:14:04.354Z,10.77
2022-08-28T09:16:34.860Z,9.05
2022-08-28T09:19:01.001Z,12.45
2022-08-28T09:21:31.167Z,10.30
2022-08-28T09:24:05.533Z,12.93
2022-08-28T09:26:32.198Z,8.38
2022-08-28T09:29:06.292Z,11.52
2022-08-28T09:31:41.148Z,10.30
2022-08-28T09:34:23.477Z,16.17
2022-08-28T09:36:50.613Z,12.48
2022-08-28T09:39:26.732Z,9.57
2022-08-28T09:42:32.832Z,8.30
2022-08-28T09:45:20.412Z,5.35
2022-08-28T09:47:53.227Z,17.67
2022-08-28T09:50:31.339Z,8.35
2022-08-28T09:53:19.792Z,12.02
2022-08-28T09:56:04.036Z,9.10
2022-08-28T09:58:49.040Z,5.60
2022-08-28T10:01:22.557Z,14.10
2022-08-28T10:03:55.357Z,7.63
2022-08-28T10:06:27.538Z,8.25
2022-08-28T10:09:25.725Z,7.57
2022-08-28T10:12:19.396Z,8.55
2022-08-28T10:15:02.435Z,7.28
2022-08-28T10:17:28.584Z,10.68
2022-08-28T10:20:14.846Z,9.20
2022-08-28T10:23:29.801Z,5.45
2022-08-28T10:26:40.527Z,7.50
2022-08-28T10:29:24.484Z,7.10
2022-08-28T10:32:02.401Z,8.35
2022-08-28T10:35:08.097Z,7.65
2022-08-28T10:37:52.184Z,13.23
2022-08-28T10:40:25.692Z,5.53
2022-08-28T10:43:14.223Z,6.60
2022-08-28T10:45:40.996Z,4.05
2022-08-28T10:48:16.834Z,13.43
2022-08-28T10:50:54.181Z,9.88
2022-08-28T10:53:27.235Z,7.03
2022-08-28T10:56:02.789Z,7.55
2022-08-28T10:58:31.358Z,5.57
2022-08-28T11:01:06.024Z,8.10
2022-08-28T11:03:45.856Z,6.50
2022-08-28T11:06:33.286Z,5.05
2022-08-28T11:09:22.604Z,4.22
2022-08-28T11:11:50.347Z,8.27
2022-08-28T11:14:48.407Z,12.15
2022-08-28T11:17:24.592Z,7.43
2022-08-28T11:19:56.152Z,8.52
2022-08-28T11:22:41.031Z,12.40
2022-08-28T11:25:26.591Z,8.35
2022-08-28T11:28:21.765Z,9.15
2022-08-28T11:31:08.601Z,7.68
2022-08-28T11:33:54.799Z,6.72
2022-08-28T11:36:20.836Z,7.53
2022-08-28T11:38:56.822Z,9.30
2022-08-28T11:41:28.590Z,5.40
2022-08-28T11:44:03.680Z,6.80
2022-08-28T11:46:34.560Z,8.48
2022-08-28T11:49:26.965Z,6.15
2022-08-28T11:52:20.003Z,6.60
2022-08-28T11:54:59.424Z,8.02
2022-08-28T11:57:46.231Z,7.43
2022-08-28T12:00:45.628Z,6.07
2022-08-28T12:03:53.502Z,3.97
2022-08-28T12:06:46.850Z,8.90
2022-08-28T12:09:38.925Z,7.78
2022-08-28T12:12:37.009Z,5.97
2022-08-28T12:15:08.074Z,6.63
2022-08-28T12:17:44.231Z,6.35
2022-08-28T12:20:20.557Z,5.35
2022-08-28T12:22:53.652Z,5.32
2022-08-28T12:25:41.474Z,5.63
2022-08-28T12:28:21.863Z,5.43
2022-08-28T12:30:58.757Z,7.35
2022-08-28T12:33:31.297Z,6.40
2022-08-28T12:36:05.515Z,4.85
2022-08-28T12:38:33.931Z,7.47
2022-08-28T12:41:02.039Z,7.63
2022-08-28T12:43:30.682Z,3.50
2022-08-28T12:45:58.840Z,4.68
2022-08-28T12:48:31.862Z,6.22
2022-08-28T12:51:00.879Z,6.45
2022-08-28T12:53:42.034Z,5.28
2022-08-28T12:56:14.933Z,4.75
2022-08-28T12:58:42.316Z,3.85
2022-08-28T13:01:14.364Z,4.68
2022-08-28T13:03:59.650Z,6.93
2022-08-28T13:09:00.820Z,4.07
2022-08-28T13:11:39.045Z,4.75
2022-08-28T13:14:07.865Z,5.70
2022-08-28T13:16:42.943Z,5.53
2022-08-28T13:19:12.222Z,5.05
2022-08-28T13:21:47.002Z,5.15
2022-08-28T13:26:58.511Z,5.65
2022-08-28T13:29:24.545Z,3.33
2022-08-28T13:32:00.155Z,3.95
2022-08-28T13:34:31.454Z,3.03
2022-08-28T13:36:59.171Z,4.35
2022-08-28T13:39:27.562Z,5.03
2022-08-28T13:41:57.635Z,6.50
2022-08-28T13:44:36.040Z,8.35
2022-08-28T13:47:06.165Z,4.15
2022-08-28T13:49:33.379Z,4.68
2022-08-28T13:52:01.685Z,4.60
2022-08-28T13:54:29.463Z,5.20
2022-08-28T13:56:57.570Z,5.07
2022-08-28T13:59:24.058Z,5.85
2022-08-28T14:02:12.690Z,3.88
2022-08-28T14:04:39.423Z,6.25
2022-08-28T14:07:07.233Z,3.83
2022-08-28T14:09:34.631Z,4.57
2022-08-28T14:12:01.838Z,5.43
2022-08-28T14:14:28.180Z,3.53
2022-08-28T14:16:55.243Z,6.95
2022-08-28T14:19:21.659Z,4.68
2022-08-28T14:21:47.811Z,5.78
2022-08-28T14:24:13.961Z,3.33
2022-08-28T14:26:39.952Z,6.35
2022-08-28T14:29:08.961Z,4.22
2022-08-28T14:31:36.107Z,4.18
2022-08-28T14:34:04.133Z,5.45
2022-08-28T14:36:31.231Z,3.55
2022-08-28T14:39:04.020Z,5.38
2022-08-28T14:41:32.024Z,6.07
2022-08-28T14:43:58.221Z,3.63
2022-08-28T14:46:27.838Z,3.03
2022-08-28T14:48:59.536Z,5.60
2022-08-28T14:51:26.241Z,5.45
2022-08-28T14:53:52.581Z,4.20
2022-08-28T14:56:20.520Z,3.88
2022-08-28T14:58:46.513Z,5.22
2022-08-28T15:01:22.707Z,3.70
2022-08-28T15:03:48.948Z,5.22
2022-08-28T15:06:15.487Z,3.15
2022-08-28T15:08:41.494Z,4.75
2022-08-28T15:11:10.301Z,5.18
2022-08-28T15:13:37.198Z,4.30
2022-08-28T15:16:14.638Z,5.00
2022-08-28T15:18:43.666Z,3.05
2022-08-28T15:21:20.791Z,6.43
2022-08-28T15:23:51.435Z,5.95
2022-08-28T15:26:18.766Z,6.78
2022-08-28T15:28:45.283Z,3.72
2022-08-28T15:31:11.611Z,3.15
2022-08-28T15:33:40.127Z,4.05
2022-08-28T15:36:08.937Z,3.90
2022-08-28T15:38:53.325Z,3.58
2022-08-28T15:41:24.491Z,4.38
2022-08-28T15:43:53.019Z,5.65
2022-08-28T15:46:19.340Z,3.38
2022-08-28T15:48:47.527Z,5.60
2022-08-28T15:51:14.830Z,5.47
2022-08-28T15:53:41.444Z,5.18
2022-08-28T15:56:08.364Z,3.85
2022-08-28T15:58:35.370Z,4.63
2022-08-28T16:01:03.240Z,6.70
2022-08-28T16:03:29.136Z,5.22
2022-08-28T16:05:55.302Z,3.70
2022-08-28T16:08:21.453Z,3.78
2022-08-28T16:10:49.126Z,2.17
2022-08-28T16:13:16.630Z,3.55
2022-08-28T16:15:43.787Z,6.10
2022-08-28T16:18:12.158Z,4.07
2022-08-28T16:20:42.615Z,3.90
2022-08-28T16:23:10.120Z,2.65
2022-08-28T16:25:36.136Z,4.25
2022-08-28T16:28:03.172Z,6.38
2022-08-28T16:30:29.149Z,6.07
2022-08-28T16:32:55.083Z,6.05
2022-08-28T16:35:21.629Z,4.07
2022-08-28T16:37:47.711Z,4.47
2022-08-28T16:40:14.860Z,4.57
2022-08-28T16:42:41.306Z,2.90
2022-08-28T16:45:09.121Z,2.83
2022-08-28T16:47:37.230Z,3.13
2022-08-28T16:50:12.263Z,4.00
2022-08-28T16:52:38.303Z,3.35
2022-08-28T16:55:06.767Z,6.68
2022-08-28T16:57:33.426Z,4.07
2022-08-28T16:59:59.731Z,4.15
2022-08-28T17:02:26.876Z,4.57
2022-08-28T17:04:55.252Z,3.80
2022-08-28T17:07:21.484Z,4.47
2022-08-28T17:09:47.526Z,3.53
2022-08-28T17:12:13.741Z,5.07
2022-08-28T17:14:41.233Z,3.97
2022-08-28T17:17:07.156Z,3.40
2022-08-28T17:19:33.132Z,3.13
2022-08-28T17:22:17.748Z,5.35
2022-08-28T17:24:47.067Z,3.40
2022-08-28T17:27:16.740Z,3.70
2022-08-28T17:29:48.594Z,5.25
2022-08-28T17:32:14.519Z,4.50
2022-08-28T17:34:40.589Z,3.58
2022-08-28T17:37:06.565Z,3.33
2022-08-28T17:39:32.481Z,2.90
2022-08-28T17:41:59.227Z,2.60
2022-08-28T17:44:25.338Z,5.00
2022-08-28T17:46:51.236Z,4.55
2022-08-28T17:49:17.709Z,2.60
2022-08-28T17:51:44.572Z,2.78
2022-08-28T17:54:20.663Z,4.00
2022-08-28T17:56:47.176Z,4.32
2022-08-28T17:59:13.893Z,5.05
2022-08-28T18:01:41.237Z,5.25
2022-08-28T18:04:08.119Z,3.90
2022-08-28T18:06:34.397Z,3.70
2022-08-28T18:09:00.760Z,4.47
2022-08-28T18:11:27.332Z,3.63
2022-08-28T18:13:53.484Z,8.82
2022-08-28T18:16:19.508Z,10.82
2022-08-28T18:18:45.394Z,8.93
2022-08-28T18:21:12.571Z,7.75
2022-08-28T18:23:39.704Z,4.28
2022-08-28T18:26:07.359Z,3.63
2022-08-28T18:28:33.354Z,4.50
2022-08-28T18:31:00.510Z,5.55
2022-08-28T18:33:26.989Z,4.13
2022-08-28T18:35:53.513Z,6.93
2022-08-28T18:38:22.180Z,6.47
2022-08-28T18:40:48.589Z,2.50
2022-08-28T18:43:16.526Z,2.20
2022-08-28T18:45:42.419Z,5.47
2022-08-28T18:48:08.383Z,4.78
2022-08-28T18:50:34.854Z,5.05
2022-08-28T18:53:01.513Z,4.00
2022-08-28T18:55:30.350Z,4.28
2022-08-28T18:57:59.567Z,8.50
2022-08-28T19:00:26.802Z,4.72
2022-08-28T19:02:53.655Z,4.78
2022-08-28T19:05:20.610Z,3.05
2022-08-28T19:07:47.228Z,4.45
2022-08-28T19:10:32.007Z,4.25
2022-08-28T19:13:00.240Z,6.35
2022-08-28T19:15:26.193Z,5.50
2022-08-28T19:17:52.061Z,4.47
2022-08-28T19:20:19.713Z,4.15
2022-08-28T19:22:47.929Z,2.78
2022-08-28T19:25:22.386Z,3.65
2022-08-28T19:27:54.700Z,5.95
2022-08-28T19:30:25.608Z,7.60
2022-08-28T19:32:51.575Z,2.88
2022-08-28T19:35:17.716Z,5.80
2022-08-28T19:37:44.223Z,5.40
2022-08-28T19:40:12.231Z,4.78
2022-08-28T19:42:38.341Z,4.07
2022-08-28T19:45:09.949Z,3.72
2022-08-28T19:47:35.859Z,5.32
2022-08-28T19:50:03.841Z,4.60
2022-08-28T19:52:29.879Z,5.60
2022-08-28T19:54:55.811Z,7.20
2022-08-28T19:57:21.699Z,4.88
2022-08-28T19:59:48.393Z,5.20
2022-08-28T20:02:14.347Z,7.20
2022-08-28T20:04:40.320Z,6.13
2022-08-28T20:07:06.224Z,4.60
2022-08-28T20:09:32.329Z,3.65
2022-08-28T20:12:00.044Z,5.80
2022-08-28T20:14:26.305Z,4.55
2022-08-28T20:16:53.709Z,7.95
2022-08-28T20:19:20.310Z,3.33
2022-08-28T20:21:49.254Z,3.95
2022-08-28T20:24:22.907Z,3.95
2022-08-28T20:26:49.705Z,4.65
2022-08-28T20:29:15.998Z,6.20
2022-08-28T20:31:44.621Z,6.45
2022-08-28T20:34:11.574Z,3.80
2022-08-28T20:36:37.993Z,5.32
2022-08-28T20:39:06.503Z,3.90
2022-08-28T20:41:33.564Z,4.70
2022-08-28T20:44:04.160Z,4.70
2022-08-28T20:46:31.507Z,4.85
2022-08-28T20:48:59.031Z,6.25
2022-08-28T20:51:45.120Z,7.38
2022-08-28T20:54:11.310Z,4.25
2022-08-28T20:56:37.391Z,6.25
2022-08-28T20:59:03.661Z,5.70
2022-08-28T21:01:29.624Z,7.25
2022-08-28T21:03:55.536Z,3.25
2022-08-28T21:06:21.407Z,7.50
2022-08-28T21:08:49.461Z,5.72
2022-08-28T21:11:18.598Z,4.32
2022-08-28T21:13:44.493Z,3.05
2022-08-28T21:16:10.412Z,9.68
2022-08-28T21:18:36.366Z,4.93
2022-08-28T21:21:05.920Z,6.20
2022-08-28T21:23:32.401Z,4.88
2022-08-28T21:25:58.905Z,4.90
2022-08-28T21:28:25.273Z,5.72
2022-08-28T21:30:53.271Z,5.43
2022-08-28T21:33:20.048Z,4.97
2022-08-28T21:35:45.989Z,4.68
2022-08-28T21:38:11.910Z,4.50
2022-08-28T21:40:39.952Z,3.78
2022-08-28T21:43:06.247Z,5.05
2022-08-28T21:45:32.792Z,5.78
2022-08-28T21:47:58.863Z,7.18
2022-08-28T21:50:28.377Z,3.83
2022-08-28T21:52:55.449Z,7.53
2022-08-28T21:55:22.110Z,3.35
2022-08-28T21:57:48.302Z,3.30
2022-08-28T22:00:19.839Z,4.30
2022-08-28T22:02:46.745Z,3.53
2022-08-28T22:05:13.156Z,3.38
2022-08-28T22:07:39.705Z,5.90
2022-08-28T22:10:08.068Z,4.50
2022-08-28T22:12:34.057Z,6.90
2022-08-28T22:14:59.959Z,4.32
2022-08-28T22:17:25.912Z,6.90
2022-08-28T22:19:52.069Z,3.90
2022-08-28T22:22:36.788Z,5.65
2022-08-28T22:25:03.875Z,4.10
2022-08-28T22:27:31.199Z,6.18
2022-08-28T22:29:57.642Z,4.32
2022-08-28T22:32:26.012Z,6.15
2022-08-28T22:34:53.432Z,3.72
2022-08-28T22:37:19.482Z,4.40
2022-08-28T22:39:45.318Z,3.95
2022-08-28T22:42:11.143Z,5.80
2022-08-28T22:44:37.743Z,5.88
2022-08-28T22:47:04.519Z,4.95
2022-08-28T22:49:30.417Z,4.57
2022-08-28T22:51:56.646Z,5.68
2022-08-28T22:54:22.548Z,4.38
2022-08-28T22:56:48.463Z,6.75
2022-08-28T22:59:14.492Z,7.28
2022-08-28T23:01:42.046Z,5.68
2022-08-28T23:04:09.611Z,4.50
2022-08-28T23:06:38.958Z,8.38
2022-08-28T23:09:06.630Z,4.35
2022-08-28T23:11:34.455Z,5.13
2022-08-28T23:14:00.692Z,6.40
2022-08-28T23:16:26.698Z,7.47
2022-08-28T23:19:08.866Z,8.60
2022-08-28T23:21:36.020Z,7.28
2022-08-28T23:24:06.845Z,5.43
2022-08-28T23:26:33.207Z,3.55
2022-08-28T23:28:59.365Z,3.50
2022-08-28T23:31:25.474Z,10.18
2022-08-28T23:33:51.433Z,4.50
2022-08-28T23:36:18.161Z,4.57
2022-08-28T23:38:44.397Z,6.82
2022-08-28T23:41:11.303Z,3.83
2022-08-28T23:43:37.540Z,7.53
2022-08-28T23:46:04.289Z,6.50
2022-08-28T23:48:31.396Z,4.93
2022-08-28T23:50:58.296Z,4.20
2022-08-28T23:53:25.026Z,6.35
2022-08-28T23:55:50.859Z,7.82
2022-08-28T23:58:17.648Z,6.30
